Time;durP1;ratioP1;P1;durP2;ratioP2;P2;SDS_P1;SDS_P2;PMS_P1;PMS_P2;Temp;Humidity;BMP_temperature;BMP_pressure;BME280_temperature;BME280_humidity;BME280_pressure;Samples;Min_cycle;Max_cycle;Signal;HPM_P1;HPM_P2
2021/06/14 00:01:09;;;;;;;14.77;4.90;;;10.10;99.90;;;;;;5171429;27;20200;-67
2021/06/14 00:03:57;;;;;;;15.67;5.40;;;10.10;99.90;;;;;;5176181;27;20197;-66
2021/06/14 00:06:44;;;;;;;17.87;5.23;;;10.10;99.90;;;;;;5177380;27;20200;-66
2021/06/14 00:09:32;;;;;;;19.30;5.93;;;10.10;99.90;;;;;;5176139;27;20580;-66
2021/06/14 00:12:21;;;;;;;15.20;5.77;;;10.10;99.90;;;;;;5175695;27;20632;-67
2021/06/14 00:15:12;;;;;;;21.43;5.93;;;10.10;99.90;;;;;;5176750;27;20276;-66
2021/06/14 00:18:00;;;;;;;17.23;6.23;;;10.10;99.90;;;;;;5176336;27;20216;-66
2021/06/14 00:20:51;;;;;;;18.00;5.80;;;10.20;99.90;;;;;;5175660;27;20201;-67
2021/06/14 00:23:39;;;;;;;20.97;6.73;;;10.10;99.90;;;;;;5176627;27;20221;-67
2021/06/14 00:26:27;;;;;;;15.50;6.80;;;10.10;99.90;;;;;;5175417;27;20194;-67
2021/06/14 00:29:14;;;;;;;16.43;6.93;;;10.10;99.90;;;;;;5177304;27;20189;-66
2021/06/14 00:32:04;;;;;;;18.93;7.93;;;10.10;99.90;;;;;;5176601;27;20200;-66
2021/06/14 00:34:51;;;;;;;29.43;7.67;;;10.00;99.90;;;;;;5177153;27;20663;-66
2021/06/14 00:37:39;;;;;;;22.03;7.50;;;10.00;99.90;;;;;;5174761;27;20244;-67
2021/06/14 00:40:26;;;;;;;21.23;7.07;;;9.90;99.90;;;;;;5175886;27;20288;-67
2021/06/14 00:43:14;;;;;;;23.63;7.23;;;9.80;99.90;;;;;;5173003;27;20192;-66
2021/06/14 00:46:02;;;;;;;28.23;8.37;;;9.80;99.90;;;;;;5176022;27;20330;-67
2021/06/14 00:48:51;;;;;;;23.60;7.73;;;9.80;99.90;;;;;;5175994;27;20188;-66
2021/06/14 00:51:38;;;;;;;21.03;7.23;;;9.80;99.90;;;;;;5176630;27;20200;-66
2021/06/14 00:54:26;;;;;;;23.10;8.10;;;9.80;99.90;;;;;;5175687;27;20232;-67
2021/06/14 00:57:14;;;;;;;20.57;7.83;;;9.70;99.90;;;;;;5174657;27;20300;-66
2021/06/14 01:00:01;;;;;;;27.70;8.03;;;9.70;99.90;;;;;;5175961;27;20238;-67
2021/06/14 01:02:49;;;;;;;25.80;8.80;;;9.70;99.90;;;;;;5168120;27;20273;-66
2021/06/14 01:05:39;;;;;;;24.70;7.87;;;9.60;99.90;;;;;;5174909;27;20237;-67
2021/06/14 01:08:27;;;;;;;24.93;7.73;;;9.50;99.90;;;;;;5155458;27;20277;-67
2021/06/14 01:11:17;;;;;;;26.00;7.93;;;9.50;99.90;;;;;;5174998;27;20197;-66
2021/06/14 01:14:06;;;;;;;21.27;7.80;;;9.50;99.90;;;;;;5176145;27;20654;-66
2021/06/14 01:16:56;;;;;;;21.87;7.57;;;9.40;99.90;;;;;;5174568;27;20194;-67
2021/06/14 01:20:05;;;;;;;23.10;7.43;;;9.30;99.90;;;;;;5176200;27;20568;-67
2021/06/14 01:23:26;;;;;;;19.93;6.73;;;9.30;99.90;;;;;;5091204;28;20279;-67
2021/06/14 01:26:16;;;;;;;19.40;6.90;;;9.20;99.90;;;;;;5090104;28;20210;-69
2021/06/14 01:29:05;;;;;;;21.10;7.30;;;9.20;99.90;;;;;;5091523;28;20261;-69
2021/06/14 01:31:53;;;;;;;25.07;6.70;;;9.20;99.90;;;;;;5090502;28;20233;-69
2021/06/14 01:34:41;;;;;;;19.17;6.70;;;9.10;99.90;;;;;;5083367;28;20276;-69
2021/06/14 01:37:28;;;;;;;15.07;5.60;;;9.10;99.90;;;;;;5090889;28;20703;-69
2021/06/14 01:40:16;;;;;;;17.23;5.67;;;9.00;99.90;;;;;;5083768;28;20208;-69
2021/06/14 01:43:06;;;;;;;18.80;5.27;;;9.00;99.90;;;;;;5091574;28;20224;-67
2021/06/14 01:45:56;;;;;;;14.37;4.57;;;9.00;99.90;;;;;;5089928;28;20270;-67
2021/06/14 01:48:44;;;;;;;18.93;5.43;;;9.00;99.90;;;;;;5089901;28;20197;-67
2021/06/14 01:51:32;;;;;;;20.07;5.30;;;8.90;99.90;;;;;;5091475;28;20234;-67
2021/06/14 01:54:20;;;;;;;16.90;5.03;;;8.90;99.90;;;;;;5089345;28;20231;-67
2021/06/14 01:57:08;;;;;;;12.83;4.70;;;8.90;99.90;;;;;;5089757;28;20201;-67
2021/06/14 01:59:56;;;;;;;13.37;4.57;;;8.90;99.90;;;;;;5132706;27;20548;-67
2021/06/14 02:02:45;;;;;;;9.67;4.13;;;8.80;99.90;;;;;;5174598;27;20196;-69
2021/06/14 02:05:32;;;;;;;11.23;4.37;;;8.80;99.90;;;;;;5175288;27;20568;-69
2021/06/14 02:08:20;;;;;;;14.80;4.57;;;8.80;99.90;;;;;;5173476;27;20192;-70
2021/06/14 02:11:08;;;;;;;13.93;3.93;;;8.70;99.90;;;;;;5164912;27;20200;-69
2021/06/14 02:13:55;;;;;;;13.23;4.40;;;8.70;99.90;;;;;;5173785;27;20205;-70
2021/06/14 02:16:43;;;;;;;12.27;4.03;;;8.70;99.90;;;;;;5175629;27;20189;-70
2021/06/14 02:19:32;;;;;;;7.63;3.93;;;8.70;99.90;;;;;;5177698;27;20221;-69
2021/06/14 02:22:20;;;;;;;13.67;4.37;;;8.60;99.90;;;;;;5178444;27;20282;-69
2021/06/14 02:25:10;;;;;;;12.13;3.77;;;8.60;99.90;;;;;;5179059;27;20199;-68
2021/06/14 02:27:58;;;;;;;8.43;3.73;;;8.60;99.90;;;;;;5170848;27;20647;-68
2021/06/14 02:30:46;;;;;;;14.37;4.70;;;8.60;99.90;;;;;;5178257;27;20243;-68
2021/06/14 02:33:33;;;;;;;15.27;3.80;;;8.60;99.90;;;;;;5170997;27;20759;-68
2021/06/14 02:36:22;;;;;;;12.83;4.20;;;8.50;99.90;;;;;;5178632;27;20293;-68
2021/06/14 02:39:11;;;;;;;9.93;4.40;;;8.50;99.90;;;;;;5179101;27;20232;-69
2021/06/14 02:41:59;;;;;;;11.90;4.37;;;8.50;99.90;;;;;;5178130;27;20203;-69
2021/06/14 02:44:47;;;;;;;20.47;4.20;;;8.50;99.90;;;;;;5178872;27;20536;-68
2021/06/14 02:47:35;;;;;;;15.37;4.23;;;8.50;99.90;;;;;;5178263;27;20660;-68
2021/06/14 02:50:23;;;;;;;11.10;3.67;;;8.50;99.90;;;;;;5172288;27;20204;-69
2021/06/14 02:53:13;;;;;;;9.07;4.13;;;8.50;99.90;;;;;;5178382;27;20744;-69
2021/06/14 02:56:04;;;;;;;12.03;4.70;;;8.50;99.90;;;;;;5178234;27;20185;-69
2021/06/14 02:58:51;;;;;;;10.60;4.50;;;8.50;99.90;;;;;;5177931;27;20223;-68
2021/06/14 03:01:39;;;;;;;12.73;4.50;;;8.50;99.90;;;;;;5177524;27;20198;-69
2021/06/14 03:04:27;;;;;;;11.30;4.20;;;8.60;99.90;;;;;;5177274;27;20188;-69
2021/06/14 03:07:14;;;;;;;12.40;4.27;;;8.60;99.90;;;;;;5177293;27;20194;-68
2021/06/14 03:10:06;;;;;;;11.73;4.30;;;8.60;99.90;;;;;;5177893;27;20199;-68
2021/06/14 03:12:53;;;;;;;10.90;4.50;;;8.60;99.90;;;;;;5162839;27;20215;-68
2021/06/14 03:15:41;;;;;;;12.50;4.80;;;8.60;99.90;;;;;;5170487;27;20609;-68
2021/06/14 03:18:30;;;;;;;11.37;4.30;;;8.60;99.90;;;;;;5176519;27;20216;-69
2021/06/14 03:21:17;;;;;;;14.17;4.40;;;8.70;99.90;;;;;;5172190;27;20190;-69
2021/06/14 03:24:06;;;;;;;10.43;4.27;;;8.70;99.90;;;;;;5177583;27;20198;-69
2021/06/14 03:26:55;;;;;;;15.20;4.47;;;8.70;99.90;;;;;;5177492;27;20189;-68
2021/06/14 03:29:43;;;;;;;14.97;4.23;;;8.60;99.90;;;;;;5166366;27;20197;-68
2021/06/14 03:32:31;;;;;;;13.43;4.43;;;8.70;99.90;;;;;;5177248;27;20511;-69
2021/06/14 03:35:19;;;;;;;14.77;4.63;;;8.70;99.90;;;;;;5176648;27;20659;-69
2021/06/14 03:38:08;;;;;;;13.07;4.97;;;8.80;99.90;;;;;;5177795;27;20213;-69
2021/06/14 03:40:55;;;;;;;13.63;4.83;;;8.80;99.90;;;;;;5167985;27;20194;-69
2021/06/14 03:43:44;;;;;;;12.30;4.90;;;8.90;99.90;;;;;;5176054;27;20217;-69
2021/06/14 03:46:32;;;;;;;19.50;5.10;;;9.00;99.90;;;;;;5169003;27;20227;-69
2021/06/14 03:49:19;;;;;;;11.20;5.23;;;9.00;99.90;;;;;;5177874;27;20192;-70
2021/06/14 03:52:07;;;;;;;17.87;4.80;;;9.10;99.90;;;;;;5176614;27;20193;-69
2021/06/14 03:54:55;;;;;;;19.27;5.57;;;9.20;99.90;;;;;;5176621;27;20775;-69
2021/06/14 03:57:43;;;;;;;13.37;4.90;;;9.20;99.90;;;;;;5171675;27;20208;-68
2021/06/14 04:00:32;;;;;;;17.50;5.30;;;9.30;99.90;;;;;;5176600;27;20189;-69
2021/06/14 04:03:20;;;;;;;12.17;4.30;;;9.40;99.90;;;;;;5176263;27;20238;-69
2021/06/14 04:06:08;;;;;;;14.67;5.30;;;9.40;99.90;;;;;;5166960;27;20212;-68
2021/06/14 04:08:56;;;;;;;12.30;4.43;;;9.50;99.90;;;;;;5176915;27;20188;-68
2021/06/14 04:11:44;;;;;;;13.67;4.80;;;9.60;99.90;;;;;;5176506;27;20201;-68
2021/06/14 04:14:31;;;;;;;10.23;4.43;;;9.60;99.90;;;;;;5176953;27;20575;-69
2021/06/14 04:17:20;;;;;;;10.93;4.30;;;9.80;99.90;;;;;;5176642;27;20779;-66
2021/06/14 04:20:09;;;;;;;12.03;4.30;;;9.80;99.90;;;;;;5175464;27;20216;-66
2021/06/14 04:22:57;;;;;;;11.30;4.43;;;9.90;99.90;;;;;;5176146;27;20204;-66
2021/06/14 04:25:44;;;;;;;10.80;4.60;;;9.90;99.90;;;;;;5175365;27;20200;-66
2021/06/14 04:28:32;;;;;;;17.43;4.90;;;10.00;99.90;;;;;;5175456;27;20705;-66
2021/06/14 04:31:19;;;;;;;13.93;4.97;;;10.10;99.90;;;;;;5176039;27;20207;-66
2021/06/14 04:34:08;;;;;;;12.30;5.10;;;10.20;99.90;;;;;;5176251;27;20204;-66
2021/06/14 04:36:56;;;;;;;15.97;4.70;;;10.20;99.90;;;;;;5176306;27;20242;-66
2021/06/14 04:39:43;;;;;;;8.27;4.60;;;10.20;99.90;;;;;;5176536;27;20216;-66
2021/06/14 04:42:31;;;;;;;12.90;4.30;;;10.30;99.90;;;;;;5174754;27;20201;-66
2021/06/14 04:45:19;;;;;;;15.83;5.47;;;10.40;99.90;;;;;;5176067;27;20233;-66
2021/06/14 04:48:06;;;;;;;12.20;4.50;;;10.50;99.90;;;;;;5175065;27;20261;-66
2021/06/14 04:50:55;;;;;;;18.87;4.80;;;10.60;99.90;;;;;;5175296;27;20197;-66
2021/06/14 04:53:43;;;;;;;13.33;5.37;;;10.60;99.90;;;;;;5175716;27;20208;-66
2021/06/14 04:56:31;;;;;;;11.37;4.20;;;10.70;99.90;;;;;;5167362;27;20189;-66
2021/06/14 04:59:18;;;;;;;13.90;4.20;;;10.80;99.90;;;;;;5175503;27;20227;-66
2021/06/14 05:02:06;;;;;;;15.07;4.33;;;11.00;99.90;;;;;;5174557;27;20242;-66
2021/06/14 05:04:54;;;;;;;12.20;4.63;;;11.00;99.90;;;;;;5174419;27;20201;-65
2021/06/14 05:07:43;;;;;;;8.77;4.17;;;11.10;99.90;;;;;;5175629;27;20543;-66
2021/06/14 05:10:30;;;;;;;12.13;4.23;;;11.30;99.90;;;;;;5175705;27;20196;-66
2021/06/14 05:13:18;;;;;;;14.47;4.17;;;11.40;99.90;;;;;;5175152;27;20185;-66
2021/06/14 05:16:06;;;;;;;14.63;3.83;;;11.50;99.90;;;;;;5175372;27;20204;-66
2021/06/14 05:18:53;;;;;;;13.30;4.00;;;11.50;99.90;;;;;;5168710;27;20218;-66
2021/06/14 05:21:41;;;;;;;17.23;4.40;;;11.60;99.90;;;;;;5175293;27;20188;-66
2021/06/14 05:24:30;;;;;;;15.90;4.30;;;11.70;99.90;;;;;;5169138;27;20199;-66
2021/06/14 05:27:18;;;;;;;13.23;4.10;;;11.80;99.90;;;;;;5175292;27;20194;-66
2021/06/14 05:30:06;;;;;;;13.67;4.80;;;11.90;99.90;;;;;;5175476;27;20205;-66
2021/06/14 05:32:54;;;;;;;11.83;4.30;;;12.00;99.90;;;;;;5175286;27;20551;-66
2021/06/14 05:35:42;;;;;;;12.90;4.00;;;12.20;99.90;;;;;;5174682;27;20198;-66
2021/06/14 05:38:30;;;;;;;8.47;3.77;;;12.20;99.90;;;;;;5167905;27;20189;-66
2021/06/14 05:41:23;;;;;;;8.87;4.10;;;12.30;99.90;;;;;;5174697;27;20189;-66
2021/06/14 05:44:11;;;;;;;11.20;3.80;;;12.40;99.90;;;;;;5174011;27;20246;-66
2021/06/14 05:46:58;;;;;;;13.10;4.00;;;12.60;99.90;;;;;;5174764;27;20220;-66
2021/06/14 05:49:46;;;;;;;14.13;4.30;;;12.70;99.90;;;;;;5175557;27;20262;-66
2021/06/14 05:52:34;;;;;;;21.63;3.90;;;12.80;99.90;;;;;;5174767;27;20197;-66
2021/06/14 05:55:21;;;;;;;10.63;4.03;;;12.90;99.90;;;;;;5174353;27;20343;-66
2021/06/14 05:58:10;;;;;;;10.43;3.60;;;13.00;99.90;;;;;;5170909;27;20215;-66
2021/06/14 06:00:58;;;;;;;14.07;3.80;;;13.10;99.90;;;;;;5174394;27;20203;-66
2021/06/14 06:03:45;;;;;;;11.53;3.03;;;13.20;99.90;;;;;;5158808;27;20209;-66
2021/06/14 06:06:33;;;;;;;11.07;3.47;;;13.30;99.90;;;;;;5159006;27;20194;-66
2021/06/14 06:09:20;;;;;;;12.23;3.43;;;13.40;99.90;;;;;;5164540;27;20296;-66
2021/06/14 06:12:09;;;;;;;12.57;3.23;;;13.50;99.90;;;;;;5170386;27;20192;-70
2021/06/14 06:14:58;;;;;;;11.27;3.10;;;13.60;99.90;;;;;;5172983;27;20546;-70
2021/06/14 06:17:46;;;;;;;9.20;2.70;;;13.70;99.90;;;;;;5174491;27;20197;-70
2021/06/14 06:20:33;;;;;;;8.87;2.67;;;13.80;99.90;;;;;;5174280;27;20217;-70
2021/06/14 06:23:21;;;;;;;6.53;2.37;;;13.90;99.90;;;;;;5166896;27;20298;-70
2021/06/14 06:26:08;;;;;;;9.47;2.70;;;14.00;99.90;;;;;;5174056;27;20264;-70
2021/06/14 06:28:56;;;;;;;9.97;2.70;;;14.20;99.90;;;;;;5174252;27;20219;-70
2021/06/14 06:31:45;;;;;;;7.90;2.60;;;14.30;99.90;;;;;;5166073;27;20202;-70
2021/06/14 06:34:32;;;;;;;6.10;2.33;;;14.30;99.90;;;;;;5173933;27;20235;-70
2021/06/14 06:37:20;;;;;;;9.37;2.30;;;14.50;99.90;;;;;;5173421;27;20192;-70
2021/06/14 06:40:11;;;;;;;7.53;2.57;;;14.50;99.90;;;;;;5171987;27;20226;-72
2021/06/14 06:42:59;;;;;;;7.13;2.00;;;14.60;99.90;;;;;;5173787;27;20189;-71
2021/06/14 06:45:47;;;;;;;6.50;2.20;;;14.80;99.90;;;;;;5172906;27;20215;-71
2021/06/14 06:48:35;;;;;;;5.80;1.90;;;14.90;99.90;;;;;;5174380;27;20207;-70
2021/06/14 06:51:23;;;;;;;7.20;2.37;;;15.10;99.90;;;;;;5173633;27;20649;-71
2021/06/14 06:54:14;;;;;;;5.70;1.97;;;15.10;99.90;;;;;;5173426;27;20281;-70
2021/06/14 06:57:01;;;;;;;4.73;2.20;;;15.30;99.90;;;;;;5173556;27;20223;-70
2021/06/14 06:59:49;;;;;;;6.03;2.53;;;15.50;99.90;;;;;;5167596;27;20216;-70
2021/06/14 07:02:36;;;;;;;7.33;2.37;;;15.50;99.90;;;;;;5173461;27;20200;-70
2021/06/14 07:05:25;;;;;;;5.37;2.20;;;15.40;99.90;;;;;;5172916;27;20199;-70
2021/06/14 07:08:13;;;;;;;6.93;2.43;;;15.60;99.90;;;;;;5167623;27;20279;-70
2021/06/14 07:11:01;;;;;;;6.73;2.07;;;15.80;99.90;;;;;;5177238;27;20273;-70
2021/06/14 07:13:48;;;;;;;5.80;2.10;;;15.90;99.90;;;;;;5176924;27;20640;-70
2021/06/14 07:16:36;;;;;;;8.03;2.20;;;15.90;99.90;;;;;;5178675;27;20272;-70
2021/06/14 07:19:24;;;;;;;3.47;1.90;;;16.10;99.90;;;;;;5176159;27;20209;-70
2021/06/14 07:22:13;;;;;;;8.83;2.00;;;16.30;99.90;;;;;;5177256;27;20196;-70
2021/06/14 07:25:00;;;;;;;5.47;2.00;;;16.10;99.90;;;;;;5178071;27;20193;-70
2021/06/14 07:27:48;;;;;;;7.10;2.60;;;16.30;99.90;;;;;;5176645;27;20210;-70
2021/06/14 07:30:35;;;;;;;5.93;2.20;;;16.60;99.90;;;;;;5177559;27;20550;-69
2021/06/14 07:33:23;;;;;;;5.27;2.00;;;16.50;99.90;;;;;;5177117;27;20196;-69
2021/06/14 07:36:10;;;;;;;6.27;1.97;;;16.50;99.90;;;;;;5176805;27;20197;-70
2021/06/14 07:38:59;;;;;;;8.97;2.07;;;16.50;99.90;;;;;;5177098;27;20719;-70
2021/06/14 07:41:47;;;;;;;6.60;2.20;;;16.40;99.90;;;;;;5177482;27;20211;-70
2021/06/14 07:44:34;;;;;;;8.53;2.33;;;16.60;99.90;;;;;;5176709;27;20658;-70
2021/06/14 07:47:22;;;;;;;5.27;1.83;;;16.90;99.90;;;;;;5176884;27;20222;-70
2021/06/14 07:50:10;;;;;;;6.33;1.90;;;17.30;99.90;;;;;;5177300;27;20203;-70
2021/06/14 07:52:58;;;;;;;4.43;1.70;;;17.40;99.90;;;;;;5176535;27;20208;-70
2021/06/14 07:55:47;;;;;;;3.90;1.73;;;17.50;99.90;;;;;;5176050;27;20230;-70
2021/06/14 07:58:34;;;;;;;4.37;1.80;;;17.60;99.90;;;;;;5171370;27;20206;-69
2021/06/14 08:01:22;;;;;;;4.87;1.70;;;17.60;99.90;;;;;;5176584;27;20284;-70
2021/06/14 08:04:09;;;;;;;4.67;1.53;;;17.40;99.90;;;;;;5176276;27;20247;-70
2021/06/14 08:06:57;;;;;;;6.03;1.93;;;17.60;99.90;;;;;;5173936;27;20230;-70
2021/06/14 08:09:46;;;;;;;5.37;1.70;;;17.90;99.90;;;;;;5175457;27;20200;-70
2021/06/14 08:12:38;;;;;;;7.33;2.00;;;18.30;99.90;;;;;;5162429;27;20285;-71
2021/06/14 08:15:27;;;;;;;4.27;2.03;;;18.40;99.90;;;;;;5169914;27;20191;-71
2021/06/14 08:18:29;;;;;;;4.33;1.60;;;18.50;99.90;;;;;;5175901;27;20213;-72
2021/06/14 08:27:20;;;;;;;5.27;1.80;;;18.50;99.90;;;;;;5160862;27;20193;-72
2021/06/14 08:30:10;;;;;;;4.30;1.70;;;18.90;99.90;;;;;;5167506;27;20190;-70
2021/06/14 08:32:58;;;;;;;3.80;1.80;;;19.10;99.90;;;;;;5177226;27;20199;-72
2021/06/14 08:39:30;;;;;;;4.30;1.50;;;19.50;99.90;;;;;;5173531;27;20203;-71
2021/06/14 08:42:36;;;;;;;7.90;2.10;;;19.40;99.90;;;;;;5175243;27;20200;-70
2021/06/14 08:45:25;;;;;;;4.97;1.97;;;19.40;99.90;;;;;;5160331;27;20693;-71
2021/06/14 08:48:13;;;;;;;5.37;1.90;;;19.40;99.90;;;;;;5174291;27;20199;-70
2021/06/14 08:51:01;;;;;;;5.20;1.90;;;19.50;99.90;;;;;;5174099;27;20197;-71
2021/06/14 08:53:51;;;;;;;6.37;1.80;;;19.20;99.90;;;;;;5159408;27;20199;-72
2021/06/14 08:56:39;;;;;;;5.07;2.00;;;18.90;99.90;;;;;;5173850;27;20548;-71
2021/06/14 08:59:27;;;;;;;5.87;2.10;;;19.20;99.90;;;;;;5165724;27;20206;-71
2021/06/14 09:02:16;;;;;;;6.40;2.13;;;19.50;99.90;;;;;;5175559;27;20203;-72
2021/06/14 09:05:04;;;;;;;8.77;2.10;;;19.70;99.90;;;;;;5175398;27;20547;-70
2021/06/14 09:07:52;;;;;;;10.80;2.00;;;19.40;99.90;;;;;;5169536;27;20216;-71
2021/06/14 09:10:41;;;;;;;8.90;2.13;;;18.90;99.90;;;;;;5175393;27;20193;-70
2021/06/14 09:13:29;;;;;;;6.90;1.70;;;19.30;99.90;;;;;;5174480;27;20336;-72
2021/06/14 09:16:19;;;;;;;7.03;1.80;;;19.40;99.90;;;;;;5170506;27;20196;-71
2021/06/14 09:19:25;;;;;;;5.70;1.83;;;19.30;99.90;;;;;;5173676;27;20195;-70
2021/06/14 09:22:14;;;;;;;3.20;1.90;;;19.40;99.90;;;;;;5168305;27;20203;-71
2021/06/14 09:25:03;;;;;;;6.23;2.07;;;19.60;99.90;;;;;;5174226;27;20192;-70
2021/06/14 09:27:51;;;;;;;5.90;1.93;;;19.70;99.90;;;;;;5174294;27;20193;-71
2021/06/14 09:30:39;;;;;;;4.67;1.93;;;19.70;99.90;;;;;;5165953;27;20196;-71
2021/06/14 09:33:26;;;;;;;7.50;2.20;;;19.50;99.90;;;;;;5173982;27;20211;-71
2021/06/14 09:36:15;;;;;;;5.90;1.83;;;19.80;99.90;;;;;;5174022;27;20201;-70
2021/06/14 09:39:08;;;;;;;6.63;2.10;;;20.20;97.40;;;;;;5172002;27;20188;-71
2021/06/14 09:41:55;;;;;;;6.67;2.00;;;19.70;98.20;;;;;;5167513;27;20635;-71
2021/06/14 09:44:43;;;;;;;6.53;2.30;;;20.00;99.90;;;;;;5165780;27;20200;-71
2021/06/14 09:47:30;;;;;;;8.23;1.80;;;20.70;99.90;;;;;;5174616;27;20718;-71
2021/06/14 09:50:23;;;;;;;10.07;2.20;;;21.40;99.40;;;;;;5173556;27;20188;-70
2021/06/14 09:53:13;;;;;;;3.80;1.93;;;22.00;99.50;;;;;;5172819;27;20217;-71
2021/06/14 09:56:05;;;;;;;7.00;2.17;;;22.60;95.40;;;;;;5174559;27;20197;-71
2021/06/14 09:58:54;;;;;;;3.47;1.50;;;22.50;93.20;;;;;;5172137;27;20189;-71
2021/06/14 10:01:42;;;;;;;4.53;2.00;;;22.90;93.70;;;;;;5175563;27;20574;-70
2021/06/14 10:04:30;;;;;;;4.77;1.83;;;22.10;88.50;;;;;;5173687;27;20247;-72
2021/06/14 10:07:18;;;;;;;4.60;1.80;;;21.20;87.50;;;;;;5174012;27;20197;-71
2021/06/14 10:10:18;;;;;;;4.50;1.80;;;20.80;88.90;;;;;;5173420;27;20200;-71
2021/06/14 10:13:06;;;;;;;8.30;1.60;;;20.60;93.00;;;;;;5173262;27;20627;-71
2021/06/14 10:15:58;;;;;;;5.80;1.87;;;20.50;93.60;;;;;;5173488;27;20193;-71
2021/06/14 10:18:52;;;;;;;4.80;1.70;;;20.80;96.00;;;;;;5174679;27;20193;-71
2021/06/14 10:21:40;;;;;;;3.67;1.70;;;21.50;90.60;;;;;;5174343;27;20220;-71
2021/06/14 10:24:28;;;;;;;6.37;2.60;;;22.00;89.20;;;;;;5174311;27;20193;-71
2021/06/14 10:27:17;;;;;;;6.10;2.30;;;21.80;88.30;;;;;;5166017;27;20193;-71
2021/06/14 10:30:06;;;;;;;4.47;2.03;;;21.70;89.40;;;;;;5173431;27;20313;-72
2021/06/14 10:32:53;;;;;;;2.90;1.53;;;21.50;88.80;;;;;;5172840;27;20193;-70
2021/06/14 10:35:41;;;;;;;3.53;1.60;;;21.40;83.90;;;;;;5173821;27;20197;-70
2021/06/14 10:38:28;;;;;;;4.37;1.80;;;21.30;84.80;;;;;;5173821;27;20559;-70
2021/06/14 10:41:16;;;;;;;4.37;1.50;;;21.50;85.60;;;;;;5177302;27;20266;-70
2021/06/14 10:44:06;;;;;;;4.23;1.83;;;21.20;81.40;;;;;;5178719;27;20557;-70
2021/06/14 10:46:54;;;;;;;4.13;1.90;;;20.80;80.50;;;;;;5178059;27;20213;-70
2021/06/14 10:49:41;;;;;;;3.67;1.80;;;20.20;80.70;;;;;;5178082;27;20220;-71
2021/06/14 10:52:39;;;;;;;3.53;1.60;;;20.20;85.40;;;;;;5179201;27;20276;-70
2021/06/14 10:55:28;;;;;;;4.33;1.70;;;20.30;82.00;;;;;;5177137;27;20609;-70
2021/06/14 10:58:16;;;;;;;4.57;1.70;;;20.70;83.10;;;;;;5174495;27;20190;-70
2021/06/14 11:01:07;;;;;;;4.40;1.77;;;21.00;86.30;;;;;;5157074;27;20218;-70
2021/06/14 11:03:54;;;;;;;4.83;1.50;;;21.30;88.50;;;;;;5156938;27;20194;-70
2021/06/14 11:06:51;;;;;;;3.57;1.40;;;21.30;81.70;;;;;;5173170;27;20225;-70
2021/06/14 11:09:39;;;;;;;5.20;1.77;;;20.90;80.80;;;;;;5178639;27;20215;-70
2021/06/14 11:12:27;;;;;;;5.13;2.03;;;20.70;81.20;;;;;;5177104;27;20185;-71
2021/06/14 11:15:16;;;;;;;3.73;1.47;;;20.90;82.30;;;;;;5177364;27;20269;-70
2021/06/14 11:18:09;;;;;;;3.37;1.27;;;21.50;86.70;;;;;;5177479;27;20203;-70
2021/06/14 11:21:08;;;;;;;3.17;1.33;;;22.30;82.40;;;;;;5172365;27;20627;-70
2021/06/14 11:24:04;;;;;;;4.87;1.60;;;23.00;76.60;;;;;;5156457;27;20242;-70
2021/06/14 11:26:56;;;;;;;3.40;1.40;;;23.60;72.10;;;;;;5157150;27;20198;-71
2021/06/14 11:29:48;;;;;;;2.83;1.50;;;23.10;71.10;;;;;;5167879;27;20272;-71
2021/06/14 11:32:38;;;;;;;5.73;1.80;;;22.50;69.50;;;;;;5155459;27;20190;-71
2021/06/14 11:35:28;;;;;;;4.47;2.07;;;22.00;72.00;;;;;;5156544;27;20198;-71
2021/06/14 11:38:18;;;;;;;6.63;1.67;;;22.20;77.70;;;;;;5156089;27;20202;-71
2021/06/14 11:41:06;;;;;;;6.80;2.07;;;22.60;78.40;;;;;;5156581;27;20558;-71
2021/06/14 11:44:25;;;;;;;3.97;1.63;;;22.90;69.20;;;;;;5156554;27;20280;-71
2021/06/14 11:47:13;;;;;;;4.17;2.13;;;23.20;69.80;;;;;;5155648;27;20695;-71
2021/06/14 11:50:03;;;;;;;7.00;1.80;;;23.20;72.70;;;;;;5155849;27;20205;-71
2021/06/14 11:52:59;;;;;;;3.57;1.80;;;22.70;68.40;;;;;;5154424;27;20198;-70
2021/06/14 11:55:48;;;;;;;8.40;1.70;;;22.40;71.80;;;;;;5166472;27;20710;-70
2021/06/14 11:58:37;;;;;;;6.03;1.67;;;22.20;68.20;;;;;;5174673;27;20216;-70
2021/06/14 12:01:25;;;;;;;4.13;1.73;;;21.50;72.60;;;;;;5175770;27;20209;-70
2021/06/14 12:04:22;;;;;;;2.43;1.50;;;21.10;72.80;;;;;;5175986;27;20193;-72
2021/06/14 12:07:10;;;;;;;5.03;1.70;;;20.70;73.90;;;;;;5176811;27;20216;-70
2021/06/14 12:10:00;;;;;;;5.50;1.87;;;21.00;77.40;;;;;;5176551;27;20250;-70
2021/06/14 12:12:47;;;;;;;3.67;1.57;;;21.70;80.40;;;;;;5176126;27;20189;-70
2021/06/14 12:15:35;;;;;;;4.13;1.53;;;22.50;80.10;;;;;;5176782;27;20329;-70
2021/06/14 12:18:22;;;;;;;2.20;1.30;;;22.90;74.50;;;;;;5176449;27;20205;-70
2021/06/14 12:21:10;;;;;;;5.00;1.30;;;23.50;69.50;;;;;;5169327;27;20642;-70
2021/06/14 12:23:58;;;;;;;3.70;1.47;;;23.80;61.10;;;;;;5155650;27;20194;-70
2021/06/14 12:26:47;;;;;;;2.67;1.47;;;23.00;64.40;;;;;;5155314;27;20247;-70
2021/06/14 12:29:34;;;;;;;3.50;1.40;;;22.80;67.40;;;;;;5166997;27;20201;-70
2021/06/14 12:32:22;;;;;;;3.67;1.67;;;22.80;69.60;;;;;;5156125;27;20194;-70
2021/06/14 12:35:10;;;;;;;4.40;1.60;;;23.00;70.80;;;;;;5155012;27;20216;-70
2021/06/14 12:37:58;;;;;;;3.83;1.50;;;23.00;68.10;;;;;;5155476;27;20193;-70
2021/06/14 12:40:45;;;;;;;4.60;1.60;;;22.40;67.80;;;;;;5154041;27;20254;-70
2021/06/14 12:43:35;;;;;;;3.67;1.67;;;22.30;70.20;;;;;;5154820;27;20198;-70
2021/06/14 12:46:32;;;;;;;2.77;1.70;;;22.80;71.20;;;;;;5155938;27;20703;-71
2021/06/14 12:49:24;;;;;;;4.90;1.67;;;23.30;69.20;;;;;;5155455;27;20201;-72
2021/06/14 12:52:17;;;;;;;4.53;1.90;;;23.60;64.20;;;;;;5153877;27;20193;-71
2021/06/14 12:55:06;;;;;;;5.20;1.50;;;23.00;63.50;;;;;;5159986;27;20220;-71
2021/06/14 12:57:54;;;;;;;4.87;1.90;;;22.90;68.40;;;;;;5176383;27;20639;-71
2021/06/14 13:00:43;;;;;;;6.07;1.97;;;22.60;68.30;;;;;;5176311;27;20197;-72
2021/06/14 13:03:31;;;;;;;3.20;1.83;;;22.30;70.30;;;;;;5174397;27;20549;-72
2021/06/14 13:06:19;;;;;;;4.97;1.80;;;22.10;72.10;;;;;;5175755;27;20196;-71
2021/06/14 13:09:07;;;;;;;3.13;1.90;;;21.90;70.00;;;;;;5175840;27;20204;-72
2021/06/14 13:11:54;;;;;;;3.60;1.40;;;22.10;68.70;;;;;;5175642;27;20193;-71
2021/06/14 13:14:42;;;;;;;5.80;1.70;;;22.40;70.00;;;;;;5175116;27;20286;-71
2021/06/14 13:17:31;;;;;;;2.67;1.50;;;22.90;67.60;;;;;;5176025;27;20197;-70
2021/06/14 13:20:22;;;;;;;4.63;1.67;;;23.30;62.20;;;;;;5175643;27;20197;-70
2021/06/14 13:23:11;;;;;;;5.17;1.70;;;23.60;62.60;;;;;;5153421;27;20197;-70
2021/06/14 13:26:00;;;;;;;4.30;1.57;;;23.20;60.60;;;;;;5154690;27;20201;-73
2021/06/14 13:28:48;;;;;;;2.93;1.70;;;22.70;64.00;;;;;;5160426;27;20197;-72
2021/06/14 13:31:35;;;;;;;3.30;1.50;;;22.70;64.40;;;;;;5156011;27;20230;-73
2021/06/14 13:34:26;;;;;;;4.87;1.93;;;22.60;64.80;;;;;;5153974;27;20201;-73
2021/06/14 13:37:14;;;;;;;7.83;1.90;;;22.50;65.90;;;;;;5153721;27;20225;-72
2021/06/14 13:40:08;;;;;;;4.47;2.10;;;22.60;68.60;;;;;;5153762;27;20242;-72
2021/06/14 13:42:56;;;;;;;2.63;1.60;;;23.20;65.00;;;;;;5154058;27;20222;-72
2021/06/14 13:45:45;;;;;;;4.90;1.87;;;23.70;61.70;;;;;;5153852;27;20194;-71
2021/06/14 13:48:43;;;;;;;4.23;1.33;;;24.60;65.60;;;;;;5153813;27;20235;-71
2021/06/14 13:51:31;;;;;;;3.20;1.50;;;24.90;58.40;;;;;;5153738;27;20196;-72
2021/06/14 13:54:19;;;;;;;3.47;1.50;;;24.80;60.50;;;;;;5153347;27;20230;-72
2021/06/14 13:57:08;;;;;;;3.77;1.60;;;24.20;58.40;;;;;;5153837;27;20221;-71
2021/06/14 14:00:14;;;;;;;3.60;1.60;;;23.40;59.40;;;;;;5154303;27;20193;-72
2021/06/14 14:03:13;;;;;;;3.77;1.80;;;22.90;63.20;;;;;;5154120;27;20213;-72
2021/06/14 14:06:17;;;;;;;3.77;1.70;;;22.70;66.50;;;;;;5163885;27;20288;-72
2021/06/14 14:09:11;;;;;;;3.50;1.63;;;22.50;64.40;;;;;;5174514;27;20196;-72
2021/06/14 14:12:03;;;;;;;4.90;1.87;;;22.50;65.80;;;;;;5174206;27;20196;-72
2021/06/14 14:14:50;;;;;;;3.37;1.80;;;22.80;68.60;;;;;;5174416;27;20232;-71
2021/06/14 14:17:38;;;;;;;4.47;2.10;;;23.20;64.30;;;;;;5174382;27;20189;-74
2021/06/14 14:20:25;;;;;;;4.77;2.00;;;23.40;63.90;;;;;;5173414;27;20201;-73
2021/06/14 14:23:13;;;;;;;3.13;1.50;;;23.60;59.90;;;;;;5152876;27;20221;-73
2021/06/14 14:26:05;;;;;;;3.50;1.70;;;23.80;60.60;;;;;;5153414;27;20246;-73
2021/06/14 14:28:52;;;;;;;4.03;1.90;;;23.70;58.50;;;;;;5171374;27;20686;-74
2021/06/14 14:31:41;;;;;;;3.90;1.90;;;23.60;63.10;;;;;;5153937;27;20197;-73
2021/06/14 14:34:36;;;;;;;2.83;1.67;;;23.60;63.10;;;;;;5153488;27;20208;-73
2021/06/14 14:37:41;;;;;;;3.43;1.97;;;23.20;62.40;;;;;;5152708;27;20198;-74
2021/06/14 14:40:33;;;;;;;5.67;1.87;;;22.90;64.30;;;;;;5154138;27;20585;-74
2021/06/14 14:43:23;;;;;;;6.33;1.90;;;22.70;65.90;;;;;;5154184;27;20190;-72
2021/06/14 14:46:10;;;;;;;4.83;1.80;;;23.00;67.90;;;;;;5152669;27;20710;-72
2021/06/14 14:48:58;;;;;;;3.93;1.90;;;23.40;64.40;;;;;;5152962;27;20273;-71